Time;durP1;ratioP1;P1;durP2;ratioP2;P2;SDS_P1;SDS_P2;PMS_P1;PMS_P2;Temp;Humidity;BMP_temperature;BMP_pressure;BME280_temperature;BME280_humidity;BME280_pressure;Samples;Min_cycle;Max_cycle;Signal;HPM_P1;HPM_P2
2023/10/13 00:00:47;;;;;;;106.93;52.53;;;14.50;99.90;;;;;;6259394;22;20007;-90
2023/10/13 00:03:16;;;;;;;115.78;50.40;;;14.50;99.90;;;;;;6259869;22;20016;-90
2023/10/13 00:05:43;;;;;;;121.03;49.13;;;14.60;99.90;;;;;;6259993;22;20051;-90
2023/10/13 00:08:09;;;;;;;105.15;48.65;;;14.90;99.90;;;;;;6259776;22;20054;-90
2023/10/13 00:10:35;;;;;;;114.63;53.10;;;14.60;99.90;;;;;;6259088;22;20011;-91
2023/10/13 00:15:38;;;;;;;92.95;46.58;;;14.60;99.90;;;;;;6285945;22;20020;-89
2023/10/13 00:18:12;;;;;;;73.85;51.40;;;14.70;99.90;;;;;;6259698;22;20007;-89
2023/10/13 00:20:48;;;;;;;;;;;14.70;99.90;;;;;;6259650;22;20041;-90
2023/10/13 00:23:15;;;;;;;117.18;57.60;;;14.70;99.90;;;;;;6259936;22;19919;-89
2023/10/13 00:25:49;;;;;;;131.63;54.63;;;14.70;99.90;;;;;;6261204;22;20035;-88
2023/10/13 00:28:23;;;;;;;125.10;54.40;;;14.70;99.90;;;;;;6261737;22;20438;-90
2023/10/13 00:31:00;;;;;;;115.45;57.38;;;14.80;99.90;;;;;;6261868;22;20156;-88
2023/10/13 00:33:26;;;;;;;107.55;51.50;;;14.80;99.90;;;;;;6237885;22;20015;-90
2023/10/13 00:35:52;;;;;;;104.35;50.97;;;14.80;99.90;;;;;;6260748;22;20015;-89
2023/10/13 00:38:19;;;;;;;106.00;51.00;;;14.80;99.90;;;;;;6261987;22;20050;-90
2023/10/13 00:40:51;;;;;;;108.65;52.15;;;14.80;99.90;;;;;;6237141;22;20197;-89
2023/10/13 00:45:54;;;;;;;88.05;49.83;;;14.90;99.90;;;;;;6288507;22;20019;-90
2023/10/13 00:48:42;;;;;;;102.68;49.95;;;15.10;99.90;;;;;;6263443;22;20007;-89
2023/10/13 00:51:13;;;;;;;123.50;48.90;;;15.00;99.90;;;;;;6260860;22;20022;-89
2023/10/13 00:53:40;;;;;;;103.00;50.58;;;15.00;99.90;;;;;;6262576;22;20335;-88
2023/10/13 00:56:09;;;;;;;89.18;51.88;;;15.10;99.90;;;;;;6261098;22;20004;-89
2023/10/13 00:58:38;;;;;;;97.63;43.88;;;15.30;99.90;;;;;;6261113;22;20015;-89
2023/10/13 01:01:29;;;;;;;76.85;41.90;;;15.10;99.90;;;;;;6262187;22;19999;-88
2023/10/13 01:04:02;;;;;;;86.55;48.35;;;15.10;99.90;;;;;;6260820;22;20065;-88
2023/10/13 01:06:29;;;;;;;100.40;46.28;;;15.20;99.90;;;;;;6262142;22;20023;-89
2023/10/13 01:08:59;;;;;;;72.20;39.40;;;15.10;99.90;;;;;;6260908;22;20016;-88
2023/10/13 01:11:29;;;;;;;65.38;37.30;;;15.20;99.90;;;;;;6260165;22;20068;-90
2023/10/13 01:13:57;;;;;;;84.45;49.88;;;15.20;99.90;;;;;;6261010;22;20224;-89
2023/10/13 01:16:26;;;;;;;87.57;41.72;;;15.20;99.90;;;;;;6262105;22;20012;-89
2023/10/13 01:18:53;;;;;;;66.47;41.78;;;15.30;99.90;;;;;;6261906;22;20012;-89
2023/10/13 01:21:27;;;;;;;80.32;43.72;;;15.30;99.90;;;;;;6261037;22;20014;-89
2023/10/13 01:23:53;;;;;;;75.75;43.00;;;15.50;99.90;;;;;;6261193;22;20409;-89
2023/10/13 01:26:26;;;;;;;63.80;39.70;;;15.40;99.90;;;;;;6261402;22;20016;-89
2023/10/13 01:28:57;;;;;;;71.95;45.65;;;15.50;99.90;;;;;;6261932;22;20062;-89
2023/10/13 01:31:29;;;;;;;77.78;45.50;;;15.00;99.90;;;;;;6261539;22;20035;-89
2023/10/13 01:33:58;;;;;;;62.33;39.87;;;15.50;99.90;;;;;;6262448;22;20026;-89
2023/10/13 01:36:28;;;;;;;64.25;40.17;;;15.50;99.90;;;;;;6261213;22;20011;-88
2023/10/13 01:38:53;;;;;;;78.80;40.47;;;15.50;99.90;;;;;;6234786;22;20018;-89
2023/10/13 01:41:21;;;;;;;79.60;43.13;;;15.60;99.90;;;;;;6261464;22;20063;-89
2023/10/13 01:43:48;;;;;;;73.65;38.75;;;15.60;99.90;;;;;;6260607;22;20020;-87
2023/10/13 01:46:15;;;;;;;69.47;37.83;;;15.60;99.90;;;;;;6261128;22;20043;-89
2023/10/13 01:48:43;;;;;;;66.32;36.55;;;15.70;99.90;;;;;;6260962;22;20027;-88
2023/10/13 01:51:12;;;;;;;62.30;37.90;;;15.80;99.90;;;;;;6260882;22;20012;-89
2023/10/13 01:53:38;;;;;;;63.70;36.33;;;15.80;99.90;;;;;;6260515;22;20051;-89
2023/10/13 01:56:10;;;;;;;56.72;34.53;;;15.90;99.90;;;;;;6261675;22;20012;-89
2023/10/13 01:58:42;;;;;;;46.67;36.97;;;16.10;99.90;;;;;;6260806;22;20094;-89
2023/10/13 02:01:09;;;;;;;56.38;38.70;;;15.70;99.90;;;;;;6260964;22;20012;-89
2023/10/13 02:03:41;;;;;;;65.57;34.67;;;15.70;99.90;;;;;;6260724;22;20011;-88
2023/10/13 02:06:10;;;;;;;60.42;33.50;;;15.70;99.90;;;;;;6261053;22;20012;-89
2023/10/13 02:08:43;;;;;;;58.42;35.28;;;16.00;99.90;;;;;;6266602;22;20004;-89
2023/10/13 13:50:16;;;;;;;25.07;17.07;;;18.70;99.90;;;;;;6285331;22;20020;-83
2023/10/13 13:52:48;;;;;;;19.00;13.52;;;18.70;99.90;;;;;;6253864;22;20022;-84
2023/10/13 13:55:17;;;;;;;24.50;14.63;;;18.70;99.90;;;;;;6259649;22;20008;-86
2023/10/13 13:57:44;;;;;;;23.83;13.77;;;18.60;99.90;;;;;;6261157;22;20012;-85
2023/10/13 14:00:16;;;;;;;22.73;13.00;;;18.60;99.90;;;;;;6261615;22;20015;-85
2023/10/13 14:02:47;;;;;;;21.48;15.02;;;18.60;99.90;;;;;;6260798;22;20070;-85
2023/10/13 14:05:15;;;;;;;29.40;15.32;;;18.50;99.90;;;;;;6259210;22;20020;-84
2023/10/13 14:07:48;;;;;;;24.85;14.10;;;18.60;99.90;;;;;;6259579;22;20030;-85
2023/10/13 14:10:54;;;;;;;27.17;19.67;;;18.50;99.90;;;;;;6264353;22;20480;-86
2023/10/13 14:13:22;;;;;;;19.70;13.75;;;18.40;99.90;;;;;;6289319;22;20020;-87
2023/10/13 14:15:48;;;;;;;26.15;13.70;;;18.50;99.90;;;;;;6263248;22;20041;-87
2023/10/13 14:18:16;;;;;;;23.00;13.95;;;18.60;99.90;;;;;;6262730;22;20469;-85
2023/10/13 14:20:42;;;;;;;22.48;12.50;;;18.50;99.90;;;;;;6261162;22;20020;-85
2023/10/13 14:23:11;;;;;;;27.25;13.23;;;18.50;99.90;;;;;;6259559;22;20011;-84
2023/10/13 14:25:38;;;;;;;25.77;13.40;;;18.50;99.90;;;;;;6260036;22;20046;-86
2023/10/13 14:28:07;;;;;;;27.00;15.10;;;18.40;99.90;;;;;;6259358;22;20075;-85
2023/10/13 14:30:33;;;;;;;25.58;14.15;;;18.40;99.90;;;;;;6258918;22;20011;-85
2023/10/13 14:32:59;;;;;;;24.27;12.65;;;18.40;99.90;;;;;;6258343;22;20015;-85
2023/10/13 14:35:25;;;;;;;24.40;15.15;;;18.40;99.90;;;;;;6258745;22;20170;-84
2023/10/13 14:37:55;;;;;;;22.52;13.63;;;18.40;99.90;;;;;;6310299;22;20008;-83
2023/10/13 14:40:23;;;;;;;23.35;13.38;;;18.30;99.90;;;;;;6258644;22;20015;-84
2023/10/13 14:42:49;;;;;;;21.95;12.98;;;18.30;99.90;;;;;;6259932;22;20018;-85
2023/10/13 14:45:16;;;;;;;24.75;13.90;;;18.30;99.90;;;;;;6258071;22;20012;-85
2023/10/13 14:47:45;;;;;;;23.77;12.80;;;18.40;99.90;;;;;;6260045;22;20016;-88
2023/10/13 14:50:21;;;;;;;23.70;14.23;;;18.30;99.90;;;;;;6265544;22;20043;-88
2023/10/13 14:52:48;;;;;;;24.55;15.38;;;18.40;99.90;;;;;;6265524;22;20068;-87
2023/10/13 14:55:21;;;;;;;23.48;12.82;;;18.20;99.90;;;;;;6291864;22;20027;-87
2023/10/13 14:57:50;;;;;;;24.25;13.70;;;18.40;99.90;;;;;;6256923;22;20469;-83
2023/10/13 15:00:24;;;;;;;22.00;14.38;;;18.40;99.90;;;;;;6287586;22;20011;-86
2023/10/13 15:02:51;;;;;;;22.95;15.18;;;18.40;99.90;;;;;;6261912;22;20007;-87
2023/10/13 15:05:17;;;;;;;26.08;14.05;;;18.40;99.90;;;;;;6261799;22;20019;-86
2023/10/13 15:07:44;;;;;;;22.02;14.50;;;18.40;99.90;;;;;;6262027;22;20008;-87
2023/10/13 15:10:17;;;;;;;25.98;13.25;;;18.40;99.90;;;;;;6265011;22;20022;-85
2023/10/13 15:12:46;;;;;;;25.17;13.20;;;18.40;99.90;;;;;;6262040;22;20011;-86
2023/10/13 15:15:19;;;;;;;26.55;16.05;;;18.50;99.90;;;;;;6284613;22;20016;-86
2023/10/13 15:17:45;;;;;;;26.42;13.50;;;18.30;99.90;;;;;;6260305;22;20011;-85
2023/10/13 15:20:17;;;;;;;31.80;15.88;;;18.30;99.90;;;;;;6284363;22;20099;-84
2023/10/13 15:22:44;;;;;;;23.65;15.35;;;18.20;99.90;;;;;;6257334;22;20008;-85
2023/10/13 15:25:32;;;;;;;26.23;14.95;;;18.20;99.90;;;;;;6256184;22;20706;-86
2023/10/13 15:28:02;;;;;;;27.65;16.02;;;18.10;99.90;;;;;;6283009;22;20110;-85
2023/10/13 15:30:43;;;;;;;22.08;14.75;;;18.10;99.90;;;;;;6282968;22;20022;-86
2023/10/13 15:33:12;;;;;;;31.98;15.70;;;18.00;99.90;;;;;;6257582;22;20019;-86
2023/10/13 15:35:45;;;;;;;27.15;14.90;;;18.00;99.90;;;;;;6257161;22;20016;-85
2023/10/13 15:38:14;;;;;;;28.02;15.27;;;17.90;99.90;;;;;;6281372;22;20016;-85
2023/10/13 15:40:44;;;;;;;30.00;15.73;;;17.90;99.90;;;;;;6282866;22;20011;-85
2023/10/13 15:43:10;;;;;;;24.40;15.13;;;17.90;99.90;;;;;;6258672;22;20012;-85
2023/10/13 15:45:39;;;;;;;34.70;16.38;;;17.80;99.90;;;;;;6309774;22;20016;-85
2023/10/13 15:48:05;;;;;;;28.33;15.68;;;17.80;99.90;;;;;;6283824;22;20062;-86
2023/10/13 15:50:39;;;;;;;46.47;26.80;;;17.80;99.90;;;;;;6284124;22;20023;-87
2023/10/13 15:53:06;;;;;;;51.92;26.08;;;17.70;99.90;;;;;;6284523;22;20026;-86
2023/10/13 15:55:36;;;;;;;31.30;20.27;;;17.70;99.90;;;;;;6259971;22;20015;-86
2023/10/13 15:58:02;;;;;;;32.70;20.02;;;17.70;99.90;;;;;;6260107;22;20106;-84
2023/10/13 16:00:29;;;;;;;50.30;30.35;;;17.60;99.90;;;;;;6286879;22;20011;-85
2023/10/13 16:02:59;;;;;;;32.47;20.15;;;17.60;99.90;;;;;;6260677;22;20011;-86
2023/10/13 16:05:36;;;;;;;25.15;16.80;;;17.60;99.90;;;;;;6261066;22;20089;-86
2023/10/13 16:08:03;;;;;;;28.98;15.23;;;17.70;99.90;;;;;;6267151;22;20050;-89
2023/10/13 16:10:29;;;;;;;32.75;20.02;;;17.60;99.90;;;;;;6262740;22;20054;-86
2023/10/13 16:12:57;;;;;;;28.30;14.35;;;17.60;99.90;;;;;;6261857;22;20015;-86
2023/10/13 16:15:23;;;;;;;30.30;14.82;;;17.60;99.90;;;;;;6262261;22;20017;-87
2023/10/13 16:17:53;;;;;;;22.60;15.35;;;17.60;99.90;;;;;;6262693;22;20027;-86
2023/10/13 16:20:20;;;;;;;21.65;13.02;;;17.60;99.90;;;;;;6263190;22;20016;-85
2023/10/13 16:22:47;;;;;;;21.38;15.40;;;17.50;99.90;;;;;;6262321;22;20314;-85
2023/10/13 16:25:14;;;;;;;25.83;14.55;;;17.50;99.90;;;;;;6311744;22;20466;-85
2023/10/13 16:27:42;;;;;;;30.35;16.42;;;17.50;99.90;;;;;;6262011;22;20020;-86
2023/10/13 16:30:15;;;;;;;22.73;14.30;;;17.50;99.90;;;;;;6260768;22;20037;-84
2023/10/13 16:32:45;;;;;;;20.05;12.70;;;17.60;99.90;;;;;;6309912;22;20018;-84
2023/10/13 16:35:17;;;;;;;26.65;15.55;;;17.30;99.90;;;;;;6284661;22;20012;-84
2023/10/13 16:37:45;;;;;;;27.83;13.15;;;17.40;99.90;;;;;;6284507;22;20018;-86
2023/10/13 16:40:15;;;;;;;26.17;12.07;;;17.40;99.90;;;;;;6259678;22;20016;-85
2023/10/13 16:42:41;;;;;;;18.17;14.05;;;17.40;99.90;;;;;;6285153;22;20008;-85
2023/10/13 16:45:22;;;;;;;23.33;11.73;;;17.30;99.90;;;;;;6283863;22;20320;-84
2023/10/13 16:47:49;;;;;;;18.50;12.50;;;17.30;99.90;;;;;;6260545;22;20027;-86
2023/10/13 16:50:18;;;;;;;18.27;12.68;;;17.30;99.90;;;;;;6259995;22;20100;-87
2023/10/13 16:52:48;;;;;;;16.77;11.18;;;17.30;99.90;;;;;;6254784;22;20012;-85
2023/10/13 16:55:19;;;;;;;16.73;9.65;;;17.40;99.90;;;;;;6252284;22;20012;-86
2023/10/13 16:57:46;;;;;;;21.20;14.88;;;17.40;99.90;;;;;;6251988;22;20319;-85
2023/10/13 17:00:27;;;;;;;18.17;9.80;;;17.50;99.90;;;;;;6251586;22;20012;-86
2023/10/13 17:02:54;;;;;;;18.40;16.65;;;17.40;99.90;;;;;;6303015;22;20011;-86
2023/10/13 17:05:20;;;;;;;16.58;12.40;;;17.50;99.90;;;;;;6277647;22;20019;-86
2023/10/13 17:07:46;;;;;;;16.45;11.25;;;17.50;99.90;;;;;;6252184;22;20102;-85
2023/10/13 17:10:14;;;;;;;16.23;9.77;;;17.50;99.90;;;;;;6251503;22;20015;-86
2023/10/13 17:12:40;;;;;;;20.80;12.57;;;17.50;99.90;;;;;;6277399;22;20023;-86
2023/10/13 17:15:25;;;;;;;19.75;15.25;;;17.50;99.90;;;;;;6250757;22;20406;-87
2023/10/13 17:17:50;;;;;;;19.20;10.80;;;17.50;99.90;;;;;;6252648;22;20392;-86
2023/10/13 17:20:19;;;;;;;19.63;12.27;;;17.50;99.90;;;;;;6252764;22;20016;-86
2023/10/13 17:22:49;;;;;;;20.95;10.73;;;17.50;99.90;;;;;;6276644;22;20018;-86
2023/10/13 17:25:15;;;;;;;17.70;10.32;;;17.60;99.90;;;;;;6303547;22;20018;-85
2023/10/13 17:27:42;;;;;;;18.17;11.25;;;17.60;99.90;;;;;;6277894;22;20016;-86
2023/10/13 17:30:09;;;;;;;24.63;15.82;;;17.70;99.90;;;;;;6276559;22;20021;-86
2023/10/13 17:32:38;;;;;;;17.15;11.20;;;17.60;99.90;;;;;;6252601;22;20034;-86
2023/10/13 17:35:11;;;;;;;24.17;15.48;;;17.60;99.90;;;;;;6251182;22;20051;-86
2023/10/13 17:37:42;;;;;;;;;;;17.60;99.90;;;;;;6253148;22;20008;-85
2023/10/13 17:40:09;;;;;;;19.27;12.38;;;17.60;99.90;;;;;;6278888;22;19915;-87
2023/10/13 17:42:35;;;;;;;20.88;12.10;;;17.50;99.90;;;;;;6253355;22;20178;-87
2023/10/13 17:45:05;;;;;;;23.98;15.00;;;17.60;99.90;;;;;;6252200;22;20011;-86
2023/10/13 17:47:36;;;;;;;21.38;13.50;;;17.50;99.90;;;;;;6228783;22;20515;-86
2023/10/13 17:50:03;;;;;;;20.85;11.27;;;17.60;99.90;;;;;;6250902;22;20027;-83
2023/10/13 17:52:29;;;;;;;19.48;12.63;;;17.50;99.90;;;;;;6298954;22;20011;-84
2023/10/13 17:54:55;;;;;;;20.48;12.52;;;17.50;99.90;;;;;;6276418;22;20012;-87
2023/10/13 17:57:20;;;;;;;23.08;13.68;;;17.70;99.90;;;;;;6278750;22;20030;-88
2023/10/13 17:59:46;;;;;;;26.10;15.82;;;17.50;99.90;;;;;;6253070;22;20078;-85
2023/10/13 18:02:12;;;;;;;18.00;11.27;;;17.60;99.90;;;;;;6254782;22;20012;-86
2023/10/13 18:04:40;;;;;;;17.55;9.90;;;17.80;99.90;;;;;;6282213;22;20012;-87
2023/10/13 18:07:11;;;;;;;26.15;12.90;;;17.90;99.90;;;;;;6254649;22;20022;-87
2023/10/13 18:09:38;;;;;;;21.13;12.40;;;17.80;99.90;;;;;;6255760;22;20015;-85
2023/10/13 18:12:06;;;;;;;18.90;10.43;;;17.80;99.90;;;;;;6257497;22;20012;-88
2023/10/13 18:14:32;;;;;;;18.67;13.35;;;17.90;99.90;;;;;;6257032;22;20004;-87
2023/10/13 18:16:57;;;;;;;25.38;13.43;;;17.90;99.90;;;;;;6282860;22;20012;-87
2023/10/13 18:19:27;;;;;;;26.40;18.38;;;17.90;99.90;;;;;;6280137;22;20012;-86
2023/10/13 18:21:54;;;;;;;20.30;13.55;;;18.00;99.90;;;;;;6253983;22;20008;-88
2023/10/13 18:24:22;;;;;;;23.75;14.15;;;17.90;99.90;;;;;;6253734;22;20012;-84
2023/10/13 18:26:47;;;;;;;24.60;13.52;;;18.00;99.90;;;;;;6253361;22;20041;-86
2023/10/13 18:29:13;;;;;;;22.15;11.43;;;17.90;99.90;;;;;;6278134;22;20003;-87
2023/10/13 18:31:41;;;;;;;20.17;11.75;;;17.90;99.90;;;;;;6280064;22;20011;-87
2023/10/13 18:34:08;;;;;;;16.88;10.52;;;17.90;99.90;;;;;;6252610;22;20022;-85
2023/10/13 18:36:34;;;;;;;24.02;11.40;;;17.90;99.90;;;;;;6252724;22;20065;-84
2023/10/13 18:39:00;;;;;;;21.38;11.73;;;17.80;99.90;;;;;;6252605;22;20011;-85
2023/10/13 18:41:29;;;;;;;21.45;12.15;;;17.80;99.90;;;;;;6254635;22;20019;-90
2023/10/13 18:43:56;;;;;;;20.08;11.77;;;17.70;99.90;;;;;;6254943;22;20004;-87
2023/10/13 18:46:25;;;;;;;23.75;14.85;;;17.80;99.90;;;;;;6254269;22;20018;-84
2023/10/13 18:48:51;;;;;;;30.17;15.88;;;17.70;99.90;;;;;;6252520;22;20508;-86
2023/10/13 18:51:18;;;;;;;31.50;16.58;;;17.70;99.90;;;;;;6279910;22;20745;-86
2023/10/13 18:53:48;;;;;;;21.83;13.55;;;17.70;99.90;;;;;;6283018;22;20502;-87
2023/10/13 18:56:23;;;;;;;26.38;13.20;;;17.70;99.90;;;;;;6258175;22;20085;-88
2023/10/13 18:59:02;;;;;;;24.35;15.93;;;17.70;99.90;;;;;;6258141;22;20012;-88
2023/10/13 19:01:29;;;;;;;23.33;13.07;;;17.60;99.90;;;;;;6258386;22;20012;-89
2023/10/13 19:04:03;;;;;;;27.17;13.23;;;17.60;99.90;;;;;;6261621;22;20087;-87
2023/10/13 19:06:32;;;;;;;25.92;17.58;;;17.70;99.90;;;;;;6259057;22;20090;-88
2023/10/13 19:08:58;;;;;;;32.13;21.42;;;17.90;99.90;;;;;;6253901;22;20057;-88
2023/10/13 19:11:24;;;;;;;18.77;12.25;;;17.60;99.90;;;;;;6280285;22;20015;-86
2023/10/13 19:13:52;;;;;;;23.20;13.70;;;17.70;99.90;;;;;;6281640;22;20015;-86
2023/10/13 19:16:20;;;;;;;27.17;13.57;;;17.70;99.90;;;;;;6254398;22;20050;-86
2023/10/13 19:18:46;;;;;;;17.98;13.85;;;17.60;99.90;;;;;;6253469;22;20406;-87
2023/10/13 19:21:17;;;;;;;29.23;14.50;;;17.50;99.90;;;;;;6279675;22;20023;-84
2023/10/13 19:23:51;;;;;;;27.08;15.90;;;17.60;99.90;;;;;;6253361;22;20446;-84
2023/10/13 19:26:26;;;;;;;24.42;17.83;;;17.60;99.90;;;;;;6280978;22;20035;-85
2023/10/13 19:28:56;;;;;;;29.30;15.00;;;17.60;99.90;;;;;;6252731;22;20430;-87
2023/10/13 19:31:29;;;;;;;21.30;15.00;;;17.50;99.90;;;;;;6253704;22;20015;-86
2023/10/13 19:34:04;;;;;;;30.63;14.60;;;17.50;99.90;;;;;;6252968;22;20122;-85
2023/10/13 19:36:32;;;;;;;21.67;16.67;;;17.50;99.90;;;;;;6254499;22;20033;-84
2023/10/13 19:38:58;;;;;;;32.00;28.80;;;17.40;99.90;;;;;;6254144;22;20015;-86
2023/10/13 19:41:28;;;;;;;20.20;15.27;;;17.70;99.90;;;;;;6305919;22;20051;-85
2023/10/13 19:43:59;;;;;;;33.30;20.33;;;17.50;99.90;;;;;;6254552;22;20012;-86
2023/10/13 19:46:26;;;;;;;27.60;16.67;;;17.40;99.90;;;;;;6253407;22;20030;-85
2023/10/13 19:48:52;;;;;;;25.55;19.60;;;17.40;99.90;;;;;;6279986;22;20022;-86
2023/10/13 19:51:26;;;;;;;23.15;15.05;;;17.30;99.90;;;;;;6255467;22;20076;-87
2023/10/13 19:53:52;;;;;;;;;;;17.30;99.90;;;;;;6254548;22;20022;-86
2023/10/13 19:56:19;;;;;;;26.30;15.98;;;17.30;99.90;;;;;;6253278;22;19911;-85
2023/10/13 19:58:45;;;;;;;22.88;15.23;;;17.30;99.90;;;;;;6254060;22;20012;-87
2023/10/13 20:04:06;;;;;;;;;;;17.30;99.90;;;;;;6281024;22;20016;-85
2023/10/13 20:06:33;;;;;;;23.08;15.55;;;17.20;99.90;;;;;;6253598;22;19910;-86
2023/10/13 20:09:08;;;;;;;22.02;15.05;;;17.40;99.90;;;;;;6253780;22;20016;-85
2023/10/13 20:11:35;;;;;;;23.60;17.95;;;17.40;99.90;;;;;;6253855;22;20016;-87
2023/10/13 20:14:01;;;;;;;22.45;15.80;;;17.30;99.90;;;;;;6253327;22;20057;-86
2023/10/13 20:16:29;;;;;;;27.27;15.38;;;17.30;99.90;;;;;;6278277;22;20061;-86
2023/10/13 20:18:57;;;;;;;24.42;17.42;;;17.30;99.90;;;;;;6252838;22;20016;-85
2023/10/13 20:21:27;;;;;;;22.35;14.05;;;17.00;99.90;;;;;;6253781;22;20011;-85
2023/10/13 20:23:54;;;;;;;26.52;15.98;;;17.30;99.90;;;;;;6277863;22;20078;-86
2023/10/13 20:26:21;;;;;;;27.55;16.67;;;17.30;99.90;;;;;;6253169;22;20015;-84
2023/10/13 20:28:47;;;;;;;25.75;21.85;;;17.30;99.90;;;;;;6252437;22;20015;-85
2023/10/13 20:31:12;;;;;;;24.00;15.23;;;17.30;99.90;;;;;;6252376;22;20050;-86
2023/10/13 20:33:39;;;;;;;29.02;23.73;;;17.20;99.90;;;;;;6253061;22;20026;-86
2023/10/13 20:36:05;;;;;;;21.13;13.77;;;17.30;99.90;;;;;;6252406;22;20410;-85
2023/10/13 20:38:31;;;;;;;24.45;14.68;;;17.20;99.90;;;;;;6252317;22;20346;-86
2023/10/13 20:41:03;;;;;;;25.73;16.92;;;17.20;99.90;;;;;;6278245;22;20023;-86
2023/10/13 20:43:29;;;;;;;27.45;14.10;;;17.20;99.90;;;;;;6280212;22;20066;-87
2023/10/13 20:46:01;;;;;;;24.23;17.75;;;17.10;99.90;;;;;;6255221;22;20068;-86
2023/10/13 20:48:32;;;;;;;25.00;19.23;;;17.10;99.90;;;;;;6254269;22;20441;-87
2023/10/13 20:50:59;;;;;;;27.67;18.98;;;17.10;99.90;;;;;;6254387;22;20020;-87
2023/10/13 20:53:28;;;;;;;26.08;13.10;;;17.20;99.90;;;;;;6253919;22;20012;-87
2023/10/13 20:56:05;;;;;;;32.67;22.58;;;17.20;99.90;;;;;;6254633;22;20095;-85
2023/10/13 20:58:32;;;;;;;24.17;15.23;;;17.10;99.90;;;;;;6254628;22;20199;-86
2023/10/13 21:01:06;;;;;;;31.80;21.98;;;17.10;99.90;;;;;;6254966;22;20076;-87
2023/10/13 21:03:32;;;;;;;27.83;14.00;;;17.00;99.90;;;;;;6254215;22;20453;-87
2023/10/13 21:05:58;;;;;;;21.33;13.60;;;17.10;99.90;;;;;;6254585;22;20023;-87
2023/10/13 21:08:24;;;;;;;21.38;12.50;;;17.10;99.90;;;;;;6254407;22;20018;-86
2023/10/13 21:10:52;;;;;;;26.00;15.80;;;17.10;99.90;;;;;;6306159;22;20403;-86
2023/10/13 21:13:19;;;;;;;21.33;13.32;;;17.10;99.90;;;;;;6254452;22;20016;-86
2023/10/13 21:15:45;;;;;;;24.48;17.90;;;17.40;99.90;;;;;;6255000;22;20011;-86
2023/10/13 21:18:11;;;;;;;29.42;13.38;;;17.40;99.90;;;;;;6255179;22;20011;-86
2023/10/13 21:20:40;;;;;;;27.10;13.63;;;17.20;99.90;;;;;;6254609;22;20050;-86
2023/10/13 21:23:10;;;;;;;25.38;13.65;;;17.20;99.90;;;;;;6254463;22;20019;-86
2023/10/13 21:25:40;;;;;;;20.70;12.35;;;17.50;99.90;;;;;;6255038;22;20023;-86
2023/10/13 21:28:07;;;;;;;20.13;17.00;;;17.10;99.90;;;;;;6254253;22;20058;-86
2023/10/13 21:30:33;;;;;;;25.38;11.45;;;17.20;99.90;;;;;;6254862;22;20019;-85
2023/10/13 21:32:59;;;;;;;20.90;10.57;;;17.30;99.90;;;;;;6254624;22;20595;-87
2023/10/13 21:35:29;;;;;;;14.05;12.63;;;17.30;99.90;;;;;;6257735;22;20008;-85
2023/10/13 21:37:56;;;;;;;17.73;16.02;;;17.00;99.90;;;;;;6263266;22;20016;-85
2023/10/13 21:40:23;;;;;;;15.18;13.95;;;16.70;99.90;;;;;;6263012;22;20011;-87
2023/10/13 21:42:51;;;;;;;19.60;17.90;;;16.00;99.90;;;;;;6257136;22;20011;-87
2023/10/13 21:45:20;;;;;;;16.02;14.43;;;15.20;99.90;;;;;;6260896;22;20012;-88
2023/10/13 21:47:46;;;;;;;19.48;17.80;;;15.30;99.90;;;;;;6257145;22;20023;-87
2023/10/13 21:50:13;;;;;;;24.52;22.75;;;14.50;99.90;;;;;;6256790;22;20243;-87
2023/10/13 21:52:42;;;;;;;20.30;18.52;;;14.30;99.90;;;;;;6256179;22;20050;-88
2023/10/13 21:55:18;;;;;;;16.40;14.27;;;14.20;99.90;;;;;;6256499;22;20015;-88
2023/10/13 21:57:49;;;;;;;16.85;15.38;;;14.20;99.90;;;;;;6257557;22;20042;-88
2023/10/13 22:00:53;;;;;;;24.45;22.52;;;14.10;99.90;;;;;;6258839;22;20278;-88
2023/10/13 22:03:06;;;;;;;28.52;26.02;;;14.10;99.90;;;;;;6282930;22;20016;-88
2023/10/13 22:05:32;;;;;;;26.00;23.58;;;14.10;99.90;;;;;;6257690;22;20023;-87
2023/10/13 22:07:58;;;;;;;25.98;23.58;;;14.10;99.90;;;;;;6257816;22;20022;-88
2023/10/13 22:10:24;;;;;;;22.67;20.67;;;14.70;99.90;;;;;;6258991;22;20458;-87
2023/10/13 22:12:51;;;;;;;25.42;22.98;;;14.10;99.90;;;;;;6257208;22;20016;-87
2023/10/13 22:15:20;;;;;;;24.02;21.63;;;14.40;99.90;;;;;;6256691;22;20023;-86
2023/10/13 22:17:51;;;;;;;20.83;18.02;;;14.10;99.90;;;;;;6256246;22;20358;-86
2023/10/13 22:20:17;;;;;;;22.60;20.45;;;14.40;99.90;;;;;;6255509;22;20642;-88
2023/10/13 22:22:43;;;;;;;23.10;20.67;;;14.30;99.90;;;;;;6256284;22;20016;-88
2023/10/13 22:25:12;;;;;;;25.98;23.83;;;14.00;99.90;;;;;;6256931;22;20008;-87
2023/10/13 22:27:42;;;;;;;22.27;20.17;;;14.40;99.90;;;;;;6256087;22;20058;-87
2023/10/13 22:30:17;;;;;;;29.88;26.90;;;13.90;99.90;;;;;;6256831;22;20019;-87
2023/10/13 22:32:45;;;;;;;21.20;19.42;;;14.00;99.90;;;;;;6256463;22;20023;-87
2023/10/13 22:35:14;;;;;;;27.33;24.85;;;14.10;99.90;;;;;;6257135;22;20016;-86
2023/10/13 22:37:40;;;;;;;28.73;26.38;;;14.00;99.90;;;;;;6257192;22;20011;-88
2023/10/13 22:40:11;;;;;;;25.30;22.92;;;14.00;99.90;;;;;;6258181;22;20016;-88
2023/10/13 22:42:37;;;;;;;28.77;26.75;;;14.00;99.90;;;;;;6257611;22;20011;-87
2023/10/13 22:45:03;;;;;;;29.60;27.05;;;14.10;99.90;;;;;;6258290;22;20003;-88
2023/10/13 22:47:29;;;;;;;28.67;26.30;;;14.00;99.90;;;;;;6257341;22;20018;-87
2023/10/13 22:49:55;;;;;;;20.33;18.55;;;14.40;99.90;;;;;;6258407;22;20015;-88
2023/10/13 22:52:21;;;;;;;29.45;27.10;;;14.00;99.90;;;;;;6258317;22;20035;-88
2023/10/13 22:54:46;;;;;;;27.70;25.30;;;13.90;99.90;;;;;;6258915;22;20015;-86
2023/10/13 22:57:12;;;;;;;29.95;27.50;;;14.00;99.90;;;;;;6257292;22;20488;-88
2023/10/13 22:59:38;;;;;;;29.88;27.25;;;14.10;99.90;;;;;;6257244;22;20012;-88
2023/10/13 23:02:03;;;;;;;28.25;25.65;;;14.10;99.90;;;;;;6256970;22;20091;-88
2023/10/13 23:04:32;;;;;;;23.55;18.33;;;14.10;99.90;;;;;;6257643;22;20022;-88
2023/10/13 23:06:58;;;;;;;23.35;20.90;;;14.20;99.90;;;;;;6258295;22;20012;-88
2023/10/13 23:09:25;;;;;;;21.80;19.85;;;14.10;99.90;;;;;;6259230;22;20012;-88
2023/10/13 23:12:04;;;;;;;25.35;22.80;;;14.50;99.90;;;;;;6258927;22;20011;-87
2023/10/13 23:14:33;;;;;;;14.60;13.05;;;14.10;99.90;;;;;;6257323;22;20023;-88
2023/10/13 23:17:03;;;;;;;18.40;13.40;;;14.60;99.90;;;;;;6257297;22;20091;-88
2023/10/13 23:19:34;;;;;;;21.30;16.60;;;14.40;99.90;;;;;;6256488;22;20012;-88
2023/10/13 23:22:06;;;;;;;15.93;14.52;;;14.40;99.90;;;;;;6257592;22;20012;-88
2023/10/13 23:24:32;;;;;;;20.35;18.48;;;14.00;99.90;;;;;;6258541;22;20012;-89
2023/10/13 23:26:58;;;;;;;14.25;13.02;;;14.00;99.90;;;;;;6258948;22;20334;-88
2023/10/13 23:29:25;;;;;;;15.93;12.98;;;14.60;99.90;;;;;;6257580;22;20016;-88
2023/10/13 23:31:51;;;;;;;15.55;14.05;;;14.50;99.90;;;;;;6259128;22;20019;-87
2023/10/13 23:34:17;;;;;;;17.98;16.42;;;14.20;99.90;;;;;;6256957;22;20083;-88
2023/10/13 23:36:43;;;;;;;16.33;14.65;;;14.00;99.90;;;;;;6257122;22;20111;-88
2023/10/13 23:39:09;;;;;;;19.98;18.40;;;14.00;99.90;;;;;;6257867;22;20007;-89
2023/10/13 23:41:36;;;;;;;17.52;15.98;;;14.40;99.90;;;;;;6258935;22;20111;-85
2023/10/13 23:44:13;;;;;;;18.92;15.80;;;14.00;99.90;;;;;;6258523;22;20014;-89
2023/10/13 23:46:43;;;;;;;18.13;13.98;;;14.00;99.90;;;;;;6259292;22;20012;-89
2023/10/13 23:49:19;;;;;;;15.40;13.80;;;13.90;99.90;;;;;;6258346;22;20012;-88
2023/10/13 23:51:49;;;;;;;18.73;17.02;;;14.20;99.90;;;;;;6258778;22;20012;-88
2023/10/13 23:54:18;;;;;;;20.92;17.85;;;13.90;99.90;;;;;;6259296;22;20008;-89
2023/10/13 23:56:47;;;;;;;21.65;20.08;;;14.20;99.90;;;;;;6258613;22;20007;-88
2023/10/13 23:59:28;;;;;;;17.65;16.05;;;13.80;99.90;;;;;;6259156;22;20511;-89
